sensor_id;sensor_type;location;lat;lon;timestamp;P1;durP1;ratioP1;P2;durP2;ratioP2
48789;SDS011;41718;51.980;5.734;2024-03-23T00:54:33;15.65;;;7.07;;
48789;SDS011;41718;51.980;5.734;2024-03-23T00:59:34;13.07;;;5.53;;
48789;SDS011;41718;51.980;5.734;2024-03-23T01:04:35;15.43;;;6.40;;
48789;SDS011;41718;51.980;5.734;2024-03-23T01:09:36;22.88;;;6.68;;
48789;SDS011;41718;51.980;5.734;2024-03-23T01:14:39;20.00;;;6.22;;
48789;SDS011;41718;51.980;5.734;2024-03-23T01:19:39;17.15;;;5.85;;
48789;SDS011;41718;51.980;5.734;2024-03-23T01:24:41;21.25;;;8.85;;
48789;SDS011;41718;51.980;5.734;2024-03-23T01:29:42;19.20;;;6.47;;
48789;SDS011;41718;51.980;5.734;2024-03-23T01:34:44;21.02;;;7.43;;
48789;SDS011;41718;51.980;5.734;2024-03-23T01:39:45;16.40;;;7.70;;
48789;SDS011;41718;51.980;5.734;2024-03-23T01:44:47;15.77;;;6.75;;
48789;SDS011;41718;51.980;5.734;2024-03-23T01:49:48;17.23;;;7.30;;
48789;SDS011;41718;51.980;5.734;2024-03-23T01:54:49;23.85;;;7.63;;
48789;SDS011;41718;51.980;5.734;2024-03-23T01:59:50;16.58;;;7.97;;
48789;SDS011;41718;51.980;5.734;2024-03-23T02:04:52;17.65;;;7.82;;
48789;SDS011;41718;51.980;5.734;2024-03-23T02:09:53;15.52;;;9.15;;
48789;SDS011;41718;51.980;5.734;2024-03-23T02:14:54;24.30;;;7.78;;
48789;SDS011;41718;51.980;5.734;2024-03-23T02:19:57;18.13;;;8.38;;
48789;SDS011;41718;51.980;5.734;2024-03-23T02:24:58;22.42;;;7.85;;
48789;SDS011;41718;51.980;5.734;2024-03-23T02:29:59;17.80;;;8.35;;
48789;SDS011;41718;51.980;5.734;2024-03-23T02:35:00;20.80;;;7.82;;
48789;SDS011;41718;51.980;5.734;2024-03-23T02:40:01;19.58;;;7.70;;
48789;SDS011;41718;51.980;5.734;2024-03-23T02:45:02;22.38;;;8.45;;
48789;SDS011;41718;51.980;5.734;2024-03-23T02:50:05;12.88;;;7.95;;
48789;SDS011;41718;51.980;5.734;2024-03-23T02:55:06;15.50;;;8.63;;
48789;SDS011;41718;51.980;5.734;2024-03-23T03:00:08;23.80;;;8.48;;
48789;SDS011;41718;51.980;5.734;2024-03-23T03:05:11;21.33;;;7.72;;
48789;SDS011;41718;51.980;5.734;2024-03-23T03:10:14;19.63;;;9.82;;
48789;SDS011;41718;51.980;5.734;2024-03-23T03:15:15;14.80;;;7.55;;
48789;SDS011;41718;51.980;5.734;2024-03-23T03:20:16;26.50;;;11.05;;
48789;SDS011;41718;51.980;5.734;2024-03-23T03:25:18;19.30;;;8.07;;
48789;SDS011;41718;51.980;5.734;2024-03-23T03:30:19;17.25;;;7.53;;
48789;SDS011;41718;51.980;5.734;2024-03-23T03:35:20;11.98;;;6.05;;
48789;SDS011;41718;51.980;5.734;2024-03-23T03:40:21;16.23;;;7.30;;
48789;SDS011;41718;51.980;5.734;2024-03-23T03:45:22;13.25;;;6.35;;
48789;SDS011;41718;51.980;5.734;2024-03-23T03:50:23;18.38;;;7.05;;
48789;SDS011;41718;51.980;5.734;2024-03-23T03:55:24;14.93;;;7.15;;
48789;SDS011;41718;51.980;5.734;2024-03-23T04:00:25;17.23;;;6.65;;
48789;SDS011;41718;51.980;5.734;2024-03-23T04:05:26;18.48;;;5.85;;
48789;SDS011;41718;51.980;5.734;2024-03-23T04:10:27;12.65;;;6.30;;
48789;SDS011;41718;51.980;5.734;2024-03-23T04:15:28;12.77;;;7.32;;
48789;SDS011;41718;51.980;5.734;2024-03-23T04:20:29;15.00;;;5.97;;
48789;SDS011;41718;51.980;5.734;2024-03-23T04:25:30;15.10;;;5.55;;
48789;SDS011;41718;51.980;5.734;2024-03-23T04:30:32;12.93;;;4.68;;
48789;SDS011;41718;51.980;5.734;2024-03-23T04:35:33;12.63;;;4.95;;
48789;SDS011;41718;51.980;5.734;2024-03-23T04:40:34;9.32;;;4.40;;
48789;SDS011;41718;51.980;5.734;2024-03-23T04:45:35;13.38;;;5.30;;
48789;SDS011;41718;51.980;5.734;2024-03-23T04:50:36;11.73;;;3.88;;
48789;SDS011;41718;51.980;5.734;2024-03-23T04:55:37;5.85;;;3.58;;
48789;SDS011;41718;51.980;5.734;2024-03-23T05:00:38;10.82;;;3.30;;
48789;SDS011;41718;51.980;5.734;2024-03-23T05:05:39;6.72;;;3.28;;
48789;SDS011;41718;51.980;5.734;2024-03-23T05:10:40;7.95;;;2.83;;
48789;SDS011;41718;51.980;5.734;2024-03-23T05:15:42;11.05;;;4.03;;
48789;SDS011;41718;51.980;5.734;2024-03-23T05:20:43;7.97;;;3.20;;
48789;SDS011;41718;51.980;5.734;2024-03-23T05:25:44;11.48;;;5.40;;
48789;SDS011;41718;51.980;5.734;2024-03-23T05:30:52;7.50;;;2.15;;
48789;SDS011;41718;51.980;5.734;2024-03-23T05:35:57;7.32;;;2.90;;
48789;SDS011;41718;51.980;5.734;2024-03-23T05:41:01;6.75;;;3.58;;
48789;SDS011;41718;51.980;5.734;2024-03-23T05:46:02;7.15;;;2.35;;
48789;SDS011;41718;51.980;5.734;2024-03-23T05:51:05;12.05;;;3.00;;
48789;SDS011;41718;51.980;5.734;2024-03-23T05:56:06;4.50;;;2.42;;
48789;SDS011;41718;51.980;5.734;2024-03-23T06:01:08;9.77;;;2.33;;
48789;SDS011;41718;51.980;5.734;2024-03-23T06:06:10;6.28;;;3.35;;
48789;SDS011;41718;51.980;5.734;2024-03-23T06:11:13;8.50;;;2.33;;
48789;SDS011;41718;51.980;5.734;2024-03-23T06:16:14;5.97;;;1.40;;
48789;SDS011;41718;51.980;5.734;2024-03-23T06:21:15;9.02;;;2.45;;
48789;SDS011;41718;51.980;5.734;2024-03-23T06:26:16;13.35;;;3.25;;
48789;SDS011;41718;51.980;5.734;2024-03-23T06:31:21;7.45;;;2.50;;
48789;SDS011;41718;51.980;5.734;2024-03-23T06:36:22;13.25;;;3.45;;
48789;SDS011;41718;51.980;5.734;2024-03-23T06:41:23;5.75;;;2.42;;
48789;SDS011;41718;51.980;5.734;2024-03-23T06:46:25;7.38;;;2.30;;
48789;SDS011;41718;51.980;5.734;2024-03-23T06:51:26;14.30;;;2.30;;
48789;SDS011;41718;51.980;5.734;2024-03-23T06:56:27;5.45;;;1.80;;
48789;SDS011;41718;51.980;5.734;2024-03-23T07:01:27;5.40;;;2.63;;
48789;SDS011;41718;51.980;5.734;2024-03-23T07:06:29;4.53;;;2.45;;
48789;SDS011;41718;51.980;5.734;2024-03-23T07:11:31;5.47;;;2.22;;
48789;SDS011;41718;51.980;5.734;2024-03-23T07:16:32;5.20;;;2.88;;
48789;SDS011;41718;51.980;5.734;2024-03-23T07:21:33;5.10;;;2.33;;
48789;SDS011;41718;51.980;5.734;2024-03-23T07:26:34;11.75;;;3.63;;
48789;SDS011;41718;51.980;5.734;2024-03-23T07:31:35;11.32;;;2.80;;
48789;SDS011;41718;51.980;5.734;2024-03-23T07:36:36;5.60;;;1.35;;
48789;SDS011;41718;51.980;5.734;2024-03-23T07:41:37;8.43;;;2.08;;
48789;SDS011;41718;51.980;5.734;2024-03-23T07:46:38;5.35;;;1.92;;
48789;SDS011;41718;51.980;5.734;2024-03-23T07:51:39;7.78;;;2.92;;
48789;SDS011;41718;51.980;5.734;2024-03-23T07:56:40;12.35;;;2.85;;
48789;SDS011;41718;51.980;5.734;2024-03-23T08:01:41;2.42;;;1.88;;
48789;SDS011;41718;51.980;5.734;2024-03-23T08:06:42;4.68;;;1.83;;
48789;SDS011;41718;51.980;5.734;2024-03-23T08:11:43;7.15;;;1.75;;
48789;SDS011;41718;51.980;5.734;2024-03-23T08:16:46;5.10;;;3.05;;
48789;SDS011;41718;51.980;5.734;2024-03-23T08:21:50;3.78;;;2.45;;
48789;SDS011;41718;51.980;5.734;2024-03-23T08:26:56;3.35;;;2.00;;
48789;SDS011;41718;51.980;5.734;2024-03-23T08:31:57;5.32;;;2.03;;
48789;SDS011;41718;51.980;5.734;2024-03-23T08:36:58;13.80;;;3.13;;
48789;SDS011;41718;51.980;5.734;2024-03-23T08:42:13;6.18;;;1.48;;
48789;SDS011;41718;51.980;5.734;2024-03-23T08:47:14;7.05;;;2.58;;
48789;SDS011;41718;51.980;5.734;2024-03-23T08:52:32;3.00;;;1.35;;
48789;SDS011;41718;51.980;5.734;2024-03-23T08:57:39;7.45;;;2.17;;
48789;SDS011;41718;51.980;5.734;2024-03-23T09:02:40;4.32;;;1.42;;
48789;SDS011;41718;51.980;5.734;2024-03-23T09:07:53;5.90;;;1.95;;
48789;SDS011;41718;51.980;5.734;2024-03-23T09:13:12;2.40;;;0.80;;
48789;SDS011;41718;51.980;5.734;2024-03-23T09:18:14;0.93;;;0.70;;
48789;SDS011;41718;51.980;5.734;2024-03-23T09:23:15;10.00;;;2.22;;
48789;SDS011;41718;51.980;5.734;2024-03-23T09:28:16;3.17;;;2.45;;
48789;SDS011;41718;51.980;5.734;2024-03-23T09:33:17;6.57;;;1.52;;
48789;SDS011;41718;51.980;5.734;2024-03-23T09:38:18;1.98;;;0.68;;
48789;SDS011;41718;51.980;5.734;2024-03-23T09:43:19;3.67;;;3.35;;
48789;SDS011;41718;51.980;5.734;2024-03-23T09:48:21;2.25;;;1.52;;
48789;SDS011;41718;51.980;5.734;2024-03-23T09:53:22;5.53;;;1.58;;
48789;SDS011;41718;51.980;5.734;2024-03-23T09:58:27;3.78;;;1.63;;
48789;SDS011;41718;51.980;5.734;2024-03-23T10:03:28;1.38;;;0.95;;
48789;SDS011;41718;51.980;5.734;2024-03-23T10:08:29;6.38;;;2.05;;
48789;SDS011;41718;51.980;5.734;2024-03-23T10:13:31;2.95;;;0.70;;
48789;SDS011;41718;51.980;5.734;2024-03-23T10:18:32;6.60;;;1.70;;
48789;SDS011;41718;51.980;5.734;2024-03-23T10:23:39;4.82;;;1.20;;
48789;SDS011;41718;51.980;5.734;2024-03-23T10:28:51;3.72;;;1.25;;
48789;SDS011;41718;51.980;5.734;2024-03-23T10:33:53;11.50;;;2.00;;
48789;SDS011;41718;51.980;5.734;2024-03-23T10:38:54;6.35;;;2.42;;
48789;SDS011;41718;51.980;5.734;2024-03-23T10:43:56;5.72;;;1.13;;
48789;SDS011;41718;51.980;5.734;2024-03-23T10:49:02;2.63;;;1.30;;
48789;SDS011;41718;51.980;5.734;2024-03-23T10:54:04;2.67;;;1.15;;
48789;SDS011;41718;51.980;5.734;2024-03-23T10:59:07;1.20;;;1.15;;
48789;SDS011;41718;51.980;5.734;2024-03-23T11:04:09;2.75;;;2.22;;
48789;SDS011;41718;51.980;5.734;2024-03-23T11:14:35;2.72;;;1.00;;
48789;SDS011;41718;51.980;5.734;2024-03-23T11:19:37;3.58;;;1.77;;
48789;SDS011;41718;51.980;5.734;2024-03-23T11:24:38;4.47;;;1.73;;
48789;SDS011;41718;51.980;5.734;2024-03-23T11:29:39;0.88;;;0.68;;
48789;SDS011;41718;51.980;5.734;2024-03-23T11:34:43;1.88;;;0.85;;
48789;SDS011;41718;51.980;5.734;2024-03-23T11:39:44;8.38;;;2.53;;
48789;SDS011;41718;51.980;5.734;2024-03-23T11:44:48;3.38;;;1.13;;
48789;SDS011;41718;51.980;5.734;2024-03-23T11:49:49;1.77;;;1.48;;
48789;SDS011;41718;51.980;5.734;2024-03-23T11:55:06;16.02;;;3.53;;
48789;SDS011;41718;51.980;5.734;2024-03-23T12:00:20;8.75;;;0.80;;
48789;SDS011;41718;51.980;5.734;2024-03-23T12:05:41;6.80;;;1.77;;
48789;SDS011;41718;51.980;5.734;2024-03-23T12:11:15;5.88;;;1.40;;
48789;SDS011;41718;51.980;5.734;2024-03-23T12:16:28;4.55;;;1.63;;
48789;SDS011;41718;51.980;5.734;2024-03-23T12:21:33;6.95;;;1.65;;
48789;SDS011;41718;51.980;5.734;2024-03-23T12:26:34;2.17;;;0.68;;
48789;SDS011;41718;51.980;5.734;2024-03-23T12:37:09;3.38;;;1.02;;
48789;SDS011;41718;51.980;5.734;2024-03-23T12:42:21;4.50;;;1.38;;
48789;SDS011;41718;51.980;5.734;2024-03-23T14:48:28;7.85;;;1.50;;
48789;SDS011;41718;51.980;5.734;2024-03-23T14:53:29;1.45;;;0.93;;
48789;SDS011;41718;51.980;5.734;2024-03-23T14:58:33;0.82;;;0.82;;
48789;SDS011;41718;51.980;5.734;2024-03-23T15:03:42;1.45;;;0.88;;
48789;SDS011;41718;51.980;5.734;2024-03-23T15:08:44;6.25;;;1.42;;
48789;SDS011;41718;51.980;5.734;2024-03-23T15:13:52;2.40;;;1.10;;
48789;SDS011;41718;51.980;5.734;2024-03-23T15:18:59;4.05;;;2.00;;
48789;SDS011;41718;51.980;5.734;2024-03-23T15:24:13;4.20;;;2.13;;
48789;SDS011;41718;51.980;5.734;2024-03-23T15:29:17;3.67;;;1.55;;
48789;SDS011;41718;51.980;5.734;2024-03-23T15:34:23;4.00;;;1.10;;
48789;SDS011;41718;51.980;5.734;2024-03-23T15:39:25;2.47;;;0.88;;
48789;SDS011;41718;51.980;5.734;2024-03-23T15:44:41;3.03;;;0.90;;
48789;SDS011;41718;51.980;5.734;2024-03-23T15:49:49;4.43;;;1.58;;
48789;SDS011;41718;51.980;5.734;2024-03-23T15:54:57;2.63;;;0.50;;
48789;SDS011;41718;51.980;5.734;2024-03-23T16:00:37;2.75;;;1.20;;
48789;SDS011;41718;51.980;5.734;2024-03-23T16:05:41;1.45;;;0.95;;
48789;SDS011;41718;51.980;5.734;2024-03-23T16:10:53;2.03;;;0.82;;
48789;SDS011;41718;51.980;5.734;2024-03-23T16:21:57;1.60;;;0.75;;
48789;SDS011;41718;51.980;5.734;2024-03-23T16:27:01;1.33;;;0.70;;
48789;SDS011;41718;51.980;5.734;2024-03-23T16:32:08;4.85;;;1.50;;
48789;SDS011;41718;51.980;5.734;2024-03-23T16:37:09;3.53;;;0.50;;
48789;SDS011;41718;51.980;5.734;2024-03-23T16:42:13;1.48;;;0.85;;
48789;SDS011;41718;51.980;5.734;2024-03-23T16:53:16;4.88;;;1.33;;
48789;SDS011;41718;51.980;5.734;2024-03-23T16:58:17;1.63;;;0.80;;
48789;SDS011;41718;51.980;5.734;2024-03-23T17:03:21;1.90;;;0.95;;
48789;SDS011;41718;51.980;5.734;2024-03-23T17:08:25;5.28;;;1.20;;
48789;SDS011;41718;51.980;5.734;2024-03-23T17:13:26;1.80;;;1.48;;
48789;SDS011;41718;51.980;5.734;2024-03-23T17:18:33;1.75;;;0.60;;
48789;SDS011;41718;51.980;5.734;2024-03-23T17:23:35;3.95;;;1.17;;
48789;SDS011;41718;51.980;5.734;2024-03-23T17:28:43;1.25;;;1.00;;
48789;SDS011;41718;51.980;5.734;2024-03-23T17:33:51;1.75;;;0.80;;
48789;SDS011;41718;51.980;5.734;2024-03-23T17:38:56;2.70;;;0.90;;
48789;SDS011;41718;51.980;5.734;2024-03-23T17:43:57;3.20;;;0.82;;
48789;SDS011;41718;51.980;5.734;2024-03-23T17:48:58;1.55;;;1.10;;
48789;SDS011;41718;51.980;5.734;2024-03-23T17:53:59;1.38;;;0.93;;
48789;SDS011;41718;51.980;5.734;2024-03-23T17:59:00;2.20;;;1.30;;
48789;SDS011;41718;51.980;5.734;2024-03-23T18:04:04;2.60;;;1.15;;
48789;SDS011;41718;51.980;5.734;2024-03-23T18:09:15;3.88;;;1.83;;
48789;SDS011;41718;51.980;5.734;2024-03-23T18:14:19;4.40;;;2.63;;
48789;SDS011;41718;51.980;5.734;2024-03-23T18:19:20;3.35;;;1.77;;
48789;SDS011;41718;51.980;5.734;2024-03-23T18:24:27;3.25;;;2.85;;
48789;SDS011;41718;51.980;5.734;2024-03-23T18:29:34;8.48;;;3.15;;
48789;SDS011;41718;51.980;5.734;2024-03-23T18:39:52;3.75;;;1.40;;
48789;SDS011;41718;51.980;5.734;2024-03-23T18:44:53;4.10;;;1.30;;
48789;SDS011;41718;51.980;5.734;2024-03-23T18:49:54;2.03;;;1.42;;
48789;SDS011;41718;51.980;5.734;2024-03-23T18:54:55;4.25;;;2.08;;
48789;SDS011;41718;51.980;5.734;2024-03-23T18:59:57;6.63;;;2.55;;
48789;SDS011;41718;51.980;5.734;2024-03-23T19:04:58;2.60;;;1.92;;
48789;SDS011;41718;51.980;5.734;2024-03-23T19:09:59;2.58;;;1.88;;
48789;SDS011;41718;51.980;5.734;2024-03-23T19:15:06;6.72;;;1.73;;
48789;SDS011;41718;51.980;5.734;2024-03-23T19:20:11;5.35;;;1.90;;
48789;SDS011;41718;51.980;5.734;2024-03-23T19:25:14;4.68;;;2.30;;
48789;SDS011;41718;51.980;5.734;2024-03-23T19:30:15;7.05;;;2.17;;
48789;SDS011;41718;51.980;5.734;2024-03-23T19:35:16;7.15;;;2.60;;
48789;SDS011;41718;51.980;5.734;2024-03-23T19:40:18;5.43;;;2.35;;
48789;SDS011;41718;51.980;5.734;2024-03-23T19:45:19;4.47;;;2.65;;
48789;SDS011;41718;51.980;5.734;2024-03-23T19:50:20;5.25;;;2.85;;
48789;SDS011;41718;51.980;5.734;2024-03-23T19:55:21;7.30;;;2.15;;
48789;SDS011;41718;51.980;5.734;2024-03-23T20:00:26;7.03;;;2.40;;
48789;SDS011;41718;51.980;5.734;2024-03-23T20:05:58;13.77;;;3.63;;
48789;SDS011;41718;51.980;5.734;2024-03-23T20:17:11;4.82;;;2.72;;
48789;SDS011;41718;51.980;5.734;2024-03-23T20:22:15;5.97;;;2.65;;
48789;SDS011;41718;51.980;5.734;2024-03-23T20:27:18;7.18;;;2.67;;
48789;SDS011;41718;51.980;5.734;2024-03-23T20:32:21;6.43;;;3.28;;
48789;SDS011;41718;51.980;5.734;2024-03-23T20:37:22;5.63;;;2.47;;
48789;SDS011;41718;51.980;5.734;2024-03-23T20:42:23;4.85;;;2.22;;
48789;SDS011;41718;51.980;5.734;2024-03-23T20:47:24;7.55;;;3.78;;
48789;SDS011;41718;51.980;5.734;2024-03-23T20:52:27;3.70;;;1.92;;
48789;SDS011;41718;51.980;5.734;2024-03-23T20:57:28;2.50;;;2.20;;
48789;SDS011;41718;51.980;5.734;2024-03-23T21:02:29;4.78;;;2.40;;
48789;SDS011;41718;51.980;5.734;2024-03-23T21:07:31;4.80;;;2.03;;
48789;SDS011;41718;51.980;5.734;2024-03-23T21:12:33;9.15;;;2.53;;
48789;SDS011;41718;51.980;5.734;2024-03-23T21:17:35;9.88;;;3.08;;
48789;SDS011;41718;51.980;5.734;2024-03-23T21:22:36;7.20;;;2.47;;
48789;SDS011;41718;51.980;5.734;2024-03-23T21:27:39;5.03;;;2.03;;
48789;SDS011;41718;51.980;5.734;2024-03-23T21:32:40;4.15;;;1.85;;
48789;SDS011;41718;51.980;5.734;2024-03-23T21:37:45;5.40;;;1.95;;
48789;SDS011;41718;51.980;5.734;2024-03-23T21:42:54;4.60;;;1.52;;
48789;SDS011;41718;51.980;5.734;2024-03-23T21:48:03;6.28;;;3.03;;
48789;SDS011;41718;51.980;5.734;2024-03-23T21:53:08;6.40;;;2.35;;
48789;SDS011;41718;51.980;5.734;2024-03-23T21:58:09;7.20;;;2.30;;
48789;SDS011;41718;51.980;5.734;2024-03-23T22:03:12;4.18;;;1.80;;
48789;SDS011;41718;51.980;5.734;2024-03-23T22:08:18;2.00;;;1.58;;
48789;SDS011;41718;51.980;5.734;2024-03-23T22:13:22;5.25;;;2.42;;
48789;SDS011;41718;51.980;5.734;2024-03-23T22:18:24;7.95;;;1.95;;
48789;SDS011;41718;51.980;5.734;2024-03-23T22:23:33;5.82;;;2.00;;
48789;SDS011;41718;51.980;5.734;2024-03-23T22:28:47;6.30;;;2.33;;
48789;SDS011;41718;51.980;5.734;2024-03-23T22:33:56;8.10;;;2.03;;
48789;SDS011;41718;51.980;5.734;2024-03-23T22:39:00;2.80;;;2.53;;
48789;SDS011;41718;51.980;5.734;2024-03-23T22:44:13;3.80;;;2.15;;
48789;SDS011;41718;51.980;5.734;2024-03-23T22:49:24;5.18;;;2.95;;
48789;SDS011;41718;51.980;5.734;2024-03-23T22:54:32;4.55;;;2.47;;
48789;SDS011;41718;51.980;5.734;2024-03-23T22:59:40;2.80;;;1.75;;
48789;SDS011;41718;51.980;5.734;2024-03-23T23:04:59;5.70;;;2.50;;
48789;SDS011;41718;51.980;5.734;2024-03-23T23:10:09;6.85;;;3.55;;
48789;SDS011;41718;51.980;5.734;2024-03-23T23:15:11;4.25;;;2.90;;
48789;SDS011;41718;51.980;5.734;2024-03-23T23:20:12;5.18;;;2.75;;
48789;SDS011;41718;51.980;5.734;2024-03-23T23:25:17;5.72;;;2.50;;
48789;SDS011;41718;51.980;5.734;2024-03-23T23:30:24;5.30;;;3.40;;
48789;SDS011;41718;51.980;5.734;2024-03-23T23:35:29;3.28;;;2.40;;
48789;SDS011;41718;51.980;5.734;2024-03-23T23:40:54;7.10;;;2.85;;
48789;SDS011;41718;51.980;5.734;2024-03-23T23:46:07;5.72;;;2.85;;
48789;SDS011;41718;51.980;5.734;2024-03-23T23:51:13;4.80;;;3.20;;
48789;SDS011;41718;51.980;5.734;2024-03-23T23:56:15;2.72;;;2.30;;
